sensor_id;sensor_type;location;lat;lon;timestamp;temperature;humidity
4107;DHT22;21906;50.812;7.132;2024-02-23T00:00:33;7.70;72.20
4107;DHT22;21906;50.812;7.132;2024-02-23T00:02:59;7.80;72.60
4107;DHT22;21906;50.812;7.132;2024-02-23T00:05:24;7.50;73.00
4107;DHT22;21906;50.812;7.132;2024-02-23T00:07:50;7.40;74.40
4107;DHT22;21906;50.812;7.132;2024-02-23T00:10:15;7.30;75.40
4107;DHT22;21906;50.812;7.132;2024-02-23T00:12:42;7.40;75.60
4107;DHT22;21906;50.812;7.132;2024-02-23T00:15:09;7.40;76.00
4107;DHT22;21906;50.812;7.132;2024-02-23T00:17:35;7.40;75.00
4107;DHT22;21906;50.812;7.132;2024-02-23T00:20:01;7.50;75.00
4107;DHT22;21906;50.812;7.132;2024-02-23T00:22:26;7.50;74.50
4107;DHT22;21906;50.812;7.132;2024-02-23T00:24:52;7.50;74.50
4107;DHT22;21906;50.812;7.132;2024-02-23T00:27:17;7.50;74.30
4107;DHT22;21906;50.812;7.132;2024-02-23T00:29:43;7.40;74.80
4107;DHT22;21906;50.812;7.132;2024-02-23T00:32:10;7.50;74.50
4107;DHT22;21906;50.812;7.132;2024-02-23T00:34:35;7.50;74.80
4107;DHT22;21906;50.812;7.132;2024-02-23T00:37:05;7.60;74.90
4107;DHT22;21906;50.812;7.132;2024-02-23T00:39:33;7.60;74.50
4107;DHT22;21906;50.812;7.132;2024-02-23T00:41:58;7.50;74.40
4107;DHT22;21906;50.812;7.132;2024-02-23T00:44:24;7.40;74.30
4107;DHT22;21906;50.812;7.132;2024-02-23T00:46:50;7.40;73.90
4107;DHT22;21906;50.812;7.132;2024-02-23T00:49:16;7.40;73.40
4107;DHT22;21906;50.812;7.132;2024-02-23T00:51:42;7.50;72.80
4107;DHT22;21906;50.812;7.132;2024-02-23T00:54:08;7.60;71.60
4107;DHT22;21906;50.812;7.132;2024-02-23T00:56:34;7.60;71.10
4107;DHT22;21906;50.812;7.132;2024-02-23T00:59:00;7.50;71.00
4107;DHT22;21906;50.812;7.132;2024-02-23T01:01:26;7.50;71.20
4107;DHT22;21906;50.812;7.132;2024-02-23T01:03:53;7.40;70.90
4107;DHT22;21906;50.812;7.132;2024-02-23T01:06:19;7.30;71.10
4107;DHT22;21906;50.812;7.132;2024-02-23T01:08:45;7.40;71.20
4107;DHT22;21906;50.812;7.132;2024-02-23T01:11:13;7.40;71.30
4107;DHT22;21906;50.812;7.132;2024-02-23T01:13:39;7.40;71.10
4107;DHT22;21906;50.812;7.132;2024-02-23T01:16:05;7.50;70.70
4107;DHT22;21906;50.812;7.132;2024-02-23T01:18:31;7.50;70.30
4107;DHT22;21906;50.812;7.132;2024-02-23T01:20:57;7.40;69.90
4107;DHT22;21906;50.812;7.132;2024-02-23T01:23:23;7.50;70.00
4107;DHT22;21906;50.812;7.132;2024-02-23T01:25:48;7.50;69.40
4107;DHT22;21906;50.812;7.132;2024-02-23T01:28:14;7.40;69.80
4107;DHT22;21906;50.812;7.132;2024-02-23T01:30:39;7.60;69.90
4107;DHT22;21906;50.812;7.132;2024-02-23T01:33:05;7.70;69.40
4107;DHT22;21906;50.812;7.132;2024-02-23T01:35:33;7.80;69.00
4107;DHT22;21906;50.812;7.132;2024-02-23T01:37:58;7.80;68.50
4107;DHT22;21906;50.812;7.132;2024-02-23T01:40:24;7.90;68.70
4107;DHT22;21906;50.812;7.132;2024-02-23T01:43:00;7.90;68.40
4107;DHT22;21906;50.812;7.132;2024-02-23T01:45:27;8.00;68.30
4107;DHT22;21906;50.812;7.132;2024-02-23T01:47:52;8.00;68.00
4107;DHT22;21906;50.812;7.132;2024-02-23T01:50:18;8.00;67.90
4107;DHT22;21906;50.812;7.132;2024-02-23T01:52:43;8.00;67.70
4107;DHT22;21906;50.812;7.132;2024-02-23T01:55:09;8.00;67.40
4107;DHT22;21906;50.812;7.132;2024-02-23T01:57:35;8.00;66.10
4107;DHT22;21906;50.812;7.132;2024-02-23T02:00:01;7.90;66.20
4107;DHT22;21906;50.812;7.132;2024-02-23T02:02:27;7.80;66.60
4107;DHT22;21906;50.812;7.132;2024-02-23T02:04:52;7.80;66.50
4107;DHT22;21906;50.812;7.132;2024-02-23T02:07:18;7.90;66.30
4107;DHT22;21906;50.812;7.132;2024-02-23T02:09:48;7.90;66.50
4107;DHT22;21906;50.812;7.132;2024-02-23T02:12:13;7.70;67.00
4107;DHT22;21906;50.812;7.132;2024-02-23T02:14:39;7.70;66.90
4107;DHT22;21906;50.812;7.132;2024-02-23T02:17:05;7.80;66.50
4107;DHT22;21906;50.812;7.132;2024-02-23T02:19:31;7.70;66.60
4107;DHT22;21906;50.812;7.132;2024-02-23T02:21:57;7.70;66.60
4107;DHT22;21906;50.812;7.132;2024-02-23T02:24:22;7.60;66.60
4107;DHT22;21906;50.812;7.132;2024-02-23T02:26:48;7.60;66.50
4107;DHT22;21906;50.812;7.132;2024-02-23T02:29:15;7.50;66.60
4107;DHT22;21906;50.812;7.132;2024-02-23T02:31:41;7.60;66.50
4107;DHT22;21906;50.812;7.132;2024-02-23T02:34:07;7.50;66.70
4107;DHT22;21906;50.812;7.132;2024-02-23T02:36:32;7.70;66.10
4107;DHT22;21906;50.812;7.132;2024-02-23T02:38:58;7.70;65.50
4107;DHT22;21906;50.812;7.132;2024-02-23T02:41:28;7.70;65.50
4107;DHT22;21906;50.812;7.132;2024-02-23T02:43:55;7.70;66.00
4107;DHT22;21906;50.812;7.132;2024-02-23T02:46:20;7.70;65.70
4107;DHT22;21906;50.812;7.132;2024-02-23T02:48:46;7.80;65.40
4107;DHT22;21906;50.812;7.132;2024-02-23T02:51:12;7.70;65.20
4107;DHT22;21906;50.812;7.132;2024-02-23T02:53:41;7.50;65.40
4107;DHT22;21906;50.812;7.132;2024-02-23T02:56:06;7.60;65.30
4107;DHT22;21906;50.812;7.132;2024-02-23T02:58:32;7.70;65.10
4107;DHT22;21906;50.812;7.132;2024-02-23T03:00:59;7.80;65.00
4107;DHT22;21906;50.812;7.132;2024-02-23T03:03:25;7.80;64.70
4107;DHT22;21906;50.812;7.132;2024-02-23T03:05:50;7.80;64.60
4107;DHT22;21906;50.812;7.132;2024-02-23T03:08:16;7.70;64.60
4107;DHT22;21906;50.812;7.132;2024-02-23T03:10:41;7.80;64.20
4107;DHT22;21906;50.812;7.132;2024-02-23T03:13:07;7.80;64.00
4107;DHT22;21906;50.812;7.132;2024-02-23T03:15:33;7.90;63.70
4107;DHT22;21906;50.812;7.132;2024-02-23T03:17:58;7.90;64.10
4107;DHT22;21906;50.812;7.132;2024-02-23T03:20:26;7.90;63.80
4107;DHT22;21906;50.812;7.132;2024-02-23T03:22:52;7.90;64.00
4107;DHT22;21906;50.812;7.132;2024-02-23T03:25:18;7.90;64.20
4107;DHT22;21906;50.812;7.132;2024-02-23T03:27:43;7.90;64.20
4107;DHT22;21906;50.812;7.132;2024-02-23T03:30:09;8.00;63.90
4107;DHT22;21906;50.812;7.132;2024-02-23T03:32:35;8.00;64.00
4107;DHT22;21906;50.812;7.132;2024-02-23T03:35:05;7.90;64.10
4107;DHT22;21906;50.812;7.132;2024-02-23T03:37:31;7.90;64.20
4107;DHT22;21906;50.812;7.132;2024-02-23T03:39:57;7.90;64.30
4107;DHT22;21906;50.812;7.132;2024-02-23T03:42:23;7.90;64.50
4107;DHT22;21906;50.812;7.132;2024-02-23T03:44:48;7.80;64.70
4107;DHT22;21906;50.812;7.132;2024-02-23T03:47:14;7.80;64.80
4107;DHT22;21906;50.812;7.132;2024-02-23T03:49:43;7.80;64.70
4107;DHT22;21906;50.812;7.132;2024-02-23T03:52:08;7.70;65.00
4107;DHT22;21906;50.812;7.132;2024-02-23T03:54:34;7.70;65.10
4107;DHT22;21906;50.812;7.132;2024-02-23T03:56:59;7.70;65.20
4107;DHT22;21906;50.812;7.132;2024-02-23T03:59:25;7.60;65.40
4107;DHT22;21906;50.812;7.132;2024-02-23T04:01:53;7.60;65.30
4107;DHT22;21906;50.812;7.132;2024-02-23T04:04:19;7.60;65.40
4107;DHT22;21906;50.812;7.132;2024-02-23T04:06:45;7.60;65.30
4107;DHT22;21906;50.812;7.132;2024-02-23T04:09:10;7.50;65.20
4107;DHT22;21906;50.812;7.132;2024-02-23T04:11:36;7.30;65.40
4107;DHT22;21906;50.812;7.132;2024-02-23T04:14:02;7.30;66.00
4107;DHT22;21906;50.812;7.132;2024-02-23T04:16:27;7.30;65.80
4107;DHT22;21906;50.812;7.132;2024-02-23T04:18:53;7.30;65.90
4107;DHT22;21906;50.812;7.132;2024-02-23T04:21:20;7.40;65.90
4107;DHT22;21906;50.812;7.132;2024-02-23T04:23:46;7.40;65.70
4107;DHT22;21906;50.812;7.132;2024-02-23T04:26:11;7.50;65.60
4107;DHT22;21906;50.812;7.132;2024-02-23T04:28:40;7.40;65.50
4107;DHT22;21906;50.812;7.132;2024-02-23T04:31:08;7.50;65.00
4107;DHT22;21906;50.812;7.132;2024-02-23T04:33:38;7.40;64.80
4107;DHT22;21906;50.812;7.132;2024-02-23T04:36:04;7.40;65.10
4107;DHT22;21906;50.812;7.132;2024-02-23T04:38:30;7.50;64.50
4107;DHT22;21906;50.812;7.132;2024-02-23T04:40:57;7.60;64.70
4107;DHT22;21906;50.812;7.132;2024-02-23T04:43:24;7.60;64.80
4107;DHT22;21906;50.812;7.132;2024-02-23T04:45:50;7.60;64.80
4107;DHT22;21906;50.812;7.132;2024-02-23T04:48:16;7.50;64.80
4107;DHT22;21906;50.812;7.132;2024-02-23T04:50:42;7.60;64.90
4107;DHT22;21906;50.812;7.132;2024-02-23T04:53:07;7.60;65.00
4107;DHT22;21906;50.812;7.132;2024-02-23T04:55:33;7.50;65.00
4107;DHT22;21906;50.812;7.132;2024-02-23T04:57:59;7.50;65.20
4107;DHT22;21906;50.812;7.132;2024-02-23T05:00:24;7.50;65.20
4107;DHT22;21906;50.812;7.132;2024-02-23T05:02:54;7.50;65.10
4107;DHT22;21906;50.812;7.132;2024-02-23T05:05:19;7.50;65.20
4107;DHT22;21906;50.812;7.132;2024-02-23T05:07:47;7.40;65.60
4107;DHT22;21906;50.812;7.132;2024-02-23T05:10:13;7.40;65.60
4107;DHT22;21906;50.812;7.132;2024-02-23T05:12:38;7.40;65.50
4107;DHT22;21906;50.812;7.132;2024-02-23T05:15:04;7.40;65.70
4107;DHT22;21906;50.812;7.132;2024-02-23T05:17:30;7.30;65.60
4107;DHT22;21906;50.812;7.132;2024-02-23T05:19:55;7.30;65.80
4107;DHT22;21906;50.812;7.132;2024-02-23T05:22:21;7.30;65.80
4107;DHT22;21906;50.812;7.132;2024-02-23T05:24:47;7.20;65.90
4107;DHT22;21906;50.812;7.132;2024-02-23T05:27:12;7.20;65.90
4107;DHT22;21906;50.812;7.132;2024-02-23T05:29:38;7.20;65.90
4107;DHT22;21906;50.812;7.132;2024-02-23T05:32:04;7.10;66.20
4107;DHT22;21906;50.812;7.132;2024-02-23T05:34:29;7.20;66.40
4107;DHT22;21906;50.812;7.132;2024-02-23T05:36:55;7.20;66.60
4107;DHT22;21906;50.812;7.132;2024-02-23T05:39:21;7.20;66.60
4107;DHT22;21906;50.812;7.132;2024-02-23T05:41:47;7.20;66.60
4107;DHT22;21906;50.812;7.132;2024-02-23T05:44:12;7.20;66.30
4107;DHT22;21906;50.812;7.132;2024-02-23T05:46:38;7.20;66.30
4107;DHT22;21906;50.812;7.132;2024-02-23T05:49:04;7.20;66.40
4107;DHT22;21906;50.812;7.132;2024-02-23T05:51:30;7.20;66.40
4107;DHT22;21906;50.812;7.132;2024-02-23T05:53:56;7.30;66.30
4107;DHT22;21906;50.812;7.132;2024-02-23T05:56:22;7.30;66.30
4107;DHT22;21906;50.812;7.132;2024-02-23T05:58:49;7.30;66.20
4107;DHT22;21906;50.812;7.132;2024-02-23T06:01:16;7.30;66.20
4107;DHT22;21906;50.812;7.132;2024-02-23T06:03:41;7.30;66.20
4107;DHT22;21906;50.812;7.132;2024-02-23T06:06:07;7.40;66.10
4107;DHT22;21906;50.812;7.132;2024-02-23T06:08:36;7.30;66.10
4107;DHT22;21906;50.812;7.132;2024-02-23T06:11:02;7.20;66.30
4107;DHT22;21906;50.812;7.132;2024-02-23T06:13:30;7.10;66.40
4107;DHT22;21906;50.812;7.132;2024-02-23T06:15:56;7.20;66.60
4107;DHT22;21906;50.812;7.132;2024-02-23T06:18:21;7.20;66.60
4107;DHT22;21906;50.812;7.132;2024-02-23T06:20:48;7.20;66.70
4107;DHT22;21906;50.812;7.132;2024-02-23T06:23:14;7.20;66.60
4107;DHT22;21906;50.812;7.132;2024-02-23T06:25:40;7.20;66.80
4107;DHT22;21906;50.812;7.132;2024-02-23T06:28:06;7.30;66.90
4107;DHT22;21906;50.812;7.132;2024-02-23T06:30:32;7.30;66.90
4107;DHT22;21906;50.812;7.132;2024-02-23T06:32:57;7.40;66.90
4107;DHT22;21906;50.812;7.132;2024-02-23T06:35:23;7.40;67.00
4107;DHT22;21906;50.812;7.132;2024-02-23T06:37:49;7.50;67.00
4107;DHT22;21906;50.812;7.132;2024-02-23T06:40:15;7.50;67.00
4107;DHT22;21906;50.812;7.132;2024-02-23T06:42:40;7.50;66.90
4107;DHT22;21906;50.812;7.132;2024-02-23T06:45:06;7.60;66.80
4107;DHT22;21906;50.812;7.132;2024-02-23T06:47:33;7.60;66.70
4107;DHT22;21906;50.812;7.132;2024-02-23T06:49:59;7.60;66.60
4107;DHT22;21906;50.812;7.132;2024-02-23T06:52:25;7.60;66.00
4107;DHT22;21906;50.812;7.132;2024-02-23T06:54:51;7.70;66.20
4107;DHT22;21906;50.812;7.132;2024-02-23T06:57:17;7.70;66.20
4107;DHT22;21906;50.812;7.132;2024-02-23T06:59:43;7.70;66.20
4107;DHT22;21906;50.812;7.132;2024-02-23T07:02:08;7.80;66.10
4107;DHT22;21906;50.812;7.132;2024-02-23T07:04:34;7.80;66.20
4107;DHT22;21906;50.812;7.132;2024-02-23T07:07:00;7.80;65.90
4107;DHT22;21906;50.812;7.132;2024-02-23T07:09:31;7.90;65.80
4107;DHT22;21906;50.812;7.132;2024-02-23T07:11:57;7.90;65.70
4107;DHT22;21906;50.812;7.132;2024-02-23T07:14:23;7.90;65.50
4107;DHT22;21906;50.812;7.132;2024-02-23T07:16:48;7.90;65.00
4107;DHT22;21906;50.812;7.132;2024-02-23T07:19:14;7.90;65.00
4107;DHT22;21906;50.812;7.132;2024-02-23T07:21:39;7.90;65.00
4107;DHT22;21906;50.812;7.132;2024-02-23T07:24:05;8.00;65.20
4107;DHT22;21906;50.812;7.132;2024-02-23T07:26:31;8.00;65.00
4107;DHT22;21906;50.812;7.132;2024-02-23T07:28:57;8.10;64.70
4107;DHT22;21906;50.812;7.132;2024-02-23T07:31:23;8.20;64.40
4107;DHT22;21906;50.812;7.132;2024-02-23T07:33:49;8.20;64.40
4107;DHT22;21906;50.812;7.132;2024-02-23T07:36:15;8.20;64.20
4107;DHT22;21906;50.812;7.132;2024-02-23T07:38:41;8.20;64.00
4107;DHT22;21906;50.812;7.132;2024-02-23T07:41:06;8.40;63.80
4107;DHT22;21906;50.812;7.132;2024-02-23T07:43:32;8.40;63.70
4107;DHT22;21906;50.812;7.132;2024-02-23T07:45:58;8.50;62.90
4107;DHT22;21906;50.812;7.132;2024-02-23T07:48:23;8.60;62.30
4107;DHT22;21906;50.812;7.132;2024-02-23T07:50:49;8.60;62.40
4107;DHT22;21906;50.812;7.132;2024-02-23T07:53:15;8.60;62.20
4107;DHT22;21906;50.812;7.132;2024-02-23T07:55:41;8.60;62.50
4107;DHT22;21906;50.812;7.132;2024-02-23T07:58:07;8.60;62.40
4107;DHT22;21906;50.812;7.132;2024-02-23T08:00:32;8.60;62.20
4107;DHT22;21906;50.812;7.132;2024-02-23T08:03:00;8.60;62.20
4107;DHT22;21906;50.812;7.132;2024-02-23T08:05:26;8.60;61.90
4107;DHT22;21906;50.812;7.132;2024-02-23T08:07:51;8.60;61.80
4107;DHT22;21906;50.812;7.132;2024-02-23T08:10:17;8.60;61.80
4107;DHT22;21906;50.812;7.132;2024-02-23T08:12:46;8.60;61.80
4107;DHT22;21906;50.812;7.132;2024-02-23T08:15:12;8.60;61.20
4107;DHT22;21906;50.812;7.132;2024-02-23T08:17:38;8.70;61.40
4107;DHT22;21906;50.812;7.132;2024-02-23T08:20:04;8.70;61.60
4107;DHT22;21906;50.812;7.132;2024-02-23T08:22:30;8.70;61.60
4107;DHT22;21906;50.812;7.132;2024-02-23T08:24:56;8.80;61.60
4107;DHT22;21906;50.812;7.132;2024-02-23T08:27:22;8.90;61.30
4107;DHT22;21906;50.812;7.132;2024-02-23T08:29:48;8.90;60.90
4107;DHT22;21906;50.812;7.132;2024-02-23T08:32:14;9.00;60.70
4107;DHT22;21906;50.812;7.132;2024-02-23T08:34:39;9.00;60.10
4107;DHT22;21906;50.812;7.132;2024-02-23T08:37:05;9.00;60.40
4107;DHT22;21906;50.812;7.132;2024-02-23T08:39:31;9.20;59.40
4107;DHT22;21906;50.812;7.132;2024-02-23T08:41:56;9.10;59.40
4107;DHT22;21906;50.812;7.132;2024-02-23T08:44:22;9.20;59.80
4107;DHT22;21906;50.812;7.132;2024-02-23T08:46:48;9.10;59.90
4107;DHT22;21906;50.812;7.132;2024-02-23T08:49:14;9.10;59.10
4107;DHT22;21906;50.812;7.132;2024-02-23T08:51:40;9.20;59.10
4107;DHT22;21906;50.812;7.132;2024-02-23T08:54:06;9.20;59.20
4107;DHT22;21906;50.812;7.132;2024-02-23T08:56:39;9.30;59.00
4107;DHT22;21906;50.812;7.132;2024-02-23T08:59:08;9.40;58.70
4107;DHT22;21906;50.812;7.132;2024-02-23T09:01:34;9.40;58.90
4107;DHT22;21906;50.812;7.132;2024-02-23T09:04:00;9.40;59.30
4107;DHT22;21906;50.812;7.132;2024-02-23T09:06:26;9.50;59.20
4107;DHT22;21906;50.812;7.132;2024-02-23T09:08:51;9.40;58.80
4107;DHT22;21906;50.812;7.132;2024-02-23T09:11:17;9.40;58.90
4107;DHT22;21906;50.812;7.132;2024-02-23T09:13:43;9.40;59.60
4107;DHT22;21906;50.812;7.132;2024-02-23T09:16:09;9.50;59.00
4107;DHT22;21906;50.812;7.132;2024-02-23T09:18:35;9.60;58.70
4107;DHT22;21906;50.812;7.132;2024-02-23T09:21:01;9.60;58.60
4107;DHT22;21906;50.812;7.132;2024-02-23T09:23:26;9.50;58.90
4107;DHT22;21906;50.812;7.132;2024-02-23T09:25:52;9.40;59.00
4107;DHT22;21906;50.812;7.132;2024-02-23T09:28:18;9.40;59.40
4107;DHT22;21906;50.812;7.132;2024-02-23T09:30:44;9.30;59.40
4107;DHT22;21906;50.812;7.132;2024-02-23T09:33:09;9.40;59.10
4107;DHT22;21906;50.812;7.132;2024-02-23T09:35:35;9.30;57.80
4107;DHT22;21906;50.812;7.132;2024-02-23T09:38:01;9.30;58.50
4107;DHT22;21906;50.812;7.132;2024-02-23T09:40:26;9.40;58.30
4107;DHT22;21906;50.812;7.132;2024-02-23T09:42:58;9.50;58.50
4107;DHT22;21906;50.812;7.132;2024-02-23T09:45:25;9.50;58.10
4107;DHT22;21906;50.812;7.132;2024-02-23T09:47:53;9.50;58.70
4107;DHT22;21906;50.812;7.132;2024-02-23T09:50:23;9.70;58.10
4107;DHT22;21906;50.812;7.132;2024-02-23T09:52:49;9.70;57.50
4107;DHT22;21906;50.812;7.132;2024-02-23T09:55:17;9.80;57.60
4107;DHT22;21906;50.812;7.132;2024-02-23T09:57:48;9.90;56.90
4107;DHT22;21906;50.812;7.132;2024-02-23T10:00:16;9.90;55.90
4107;DHT22;21906;50.812;7.132;2024-02-23T10:02:43;9.80;56.30
4107;DHT22;21906;50.812;7.132;2024-02-23T10:05:11;9.80;56.90
4107;DHT22;21906;50.812;7.132;2024-02-23T10:07:37;9.80;57.80
4107;DHT22;21906;50.812;7.132;2024-02-23T10:10:07;9.90;58.20
4107;DHT22;21906;50.812;7.132;2024-02-23T10:12:33;9.90;57.80
4107;DHT22;21906;50.812;7.132;2024-02-23T10:14:59;10.00;57.70
4107;DHT22;21906;50.812;7.132;2024-02-23T10:17:29;10.00;58.30
4107;DHT22;21906;50.812;7.132;2024-02-23T10:19:55;10.10;58.00
4107;DHT22;21906;50.812;7.132;2024-02-23T10:22:23;10.20;58.30
4107;DHT22;21906;50.812;7.132;2024-02-23T10:24:50;10.20;58.00
4107;DHT22;21906;50.812;7.132;2024-02-23T10:27:17;10.20;58.10
4107;DHT22;21906;50.812;7.132;2024-02-23T10:29:43;10.10;59.00
4107;DHT22;21906;50.812;7.132;2024-02-23T10:32:11;10.10;59.20
4107;DHT22;21906;50.812;7.132;2024-02-23T10:34:42;10.20;57.90
4107;DHT22;21906;50.812;7.132;2024-02-23T10:37:08;10.30;57.40
4107;DHT22;21906;50.812;7.132;2024-02-23T10:39:36;10.30;58.30
4107;DHT22;21906;50.812;7.132;2024-02-23T10:42:04;10.20;58.90
4107;DHT22;21906;50.812;7.132;2024-02-23T10:44:31;10.30;57.50
4107;DHT22;21906;50.812;7.132;2024-02-23T10:46:58;10.50;57.80
4107;DHT22;21906;50.812;7.132;2024-02-23T10:49:28;10.70;56.20
4107;DHT22;21906;50.812;7.132;2024-02-23T10:51:55;10.80;56.70
4107;DHT22;21906;50.812;7.132;2024-02-23T10:54:21;10.80;57.40
4107;DHT22;21906;50.812;7.132;2024-02-23T10:56:50;10.80;57.00
4107;DHT22;21906;50.812;7.132;2024-02-23T10:59:17;10.90;55.20
4107;DHT22;21906;50.812;7.132;2024-02-23T11:01:51;11.00;55.30
4107;DHT22;21906;50.812;7.132;2024-02-23T11:04:22;11.10;54.00
4107;DHT22;21906;50.812;7.132;2024-02-23T11:06:52;11.00;53.50
4107;DHT22;21906;50.812;7.132;2024-02-23T11:09:21;10.80;53.70
4107;DHT22;21906;50.812;7.132;2024-02-23T11:11:53;10.70;54.90
4107;DHT22;21906;50.812;7.132;2024-02-23T11:14:38;10.60;55.40
4107;DHT22;21906;50.812;7.132;2024-02-23T11:17:04;10.50;55.60
4107;DHT22;21906;50.812;7.132;2024-02-23T11:19:39;10.40;58.00
4107;DHT22;21906;50.812;7.132;2024-02-23T11:22:09;10.40;58.70
4107;DHT22;21906;50.812;7.132;2024-02-23T11:24:41;10.40;61.00
4107;DHT22;21906;50.812;7.132;2024-02-23T11:27:13;10.50;60.60
4107;DHT22;21906;50.812;7.132;2024-02-23T11:29:39;10.60;59.30
4107;DHT22;21906;50.812;7.132;2024-02-23T11:32:13;10.60;59.80
4107;DHT22;21906;50.812;7.132;2024-02-23T11:34:39;10.70;57.90
4107;DHT22;21906;50.812;7.132;2024-02-23T11:37:11;10.80;56.60
4107;DHT22;21906;50.812;7.132;2024-02-23T11:39:38;10.90;57.00
4107;DHT22;21906;50.812;7.132;2024-02-23T11:42:07;11.00;57.00
4107;DHT22;21906;50.812;7.132;2024-02-23T11:44:33;11.00;55.20
4107;DHT22;21906;50.812;7.132;2024-02-23T11:46:59;10.80;54.70
4107;DHT22;21906;50.812;7.132;2024-02-23T11:49:28;10.90;55.80
4107;DHT22;21906;50.812;7.132;2024-02-23T11:51:55;10.90;57.80
4107;DHT22;21906;50.812;7.132;2024-02-23T11:54:22;10.90;57.20
4107;DHT22;21906;50.812;7.132;2024-02-23T11:56:49;10.80;57.60
4107;DHT22;21906;50.812;7.132;2024-02-23T11:59:19;10.80;58.70
4107;DHT22;21906;50.812;7.132;2024-02-23T12:01:46;10.90;56.30
4107;DHT22;21906;50.812;7.132;2024-02-23T12:04:14;10.90;56.30
4107;DHT22;21906;50.812;7.132;2024-02-23T12:06:40;10.90;58.80
4107;DHT22;21906;50.812;7.132;2024-02-23T12:09:07;10.90;55.00
4107;DHT22;21906;50.812;7.132;2024-02-23T12:11:34;11.00;56.10
4107;DHT22;21906;50.812;7.132;2024-02-23T12:14:00;11.10;56.90
4107;DHT22;21906;50.812;7.132;2024-02-23T12:16:28;11.10;57.50
4107;DHT22;21906;50.812;7.132;2024-02-23T12:18:54;11.20;57.70
4107;DHT22;21906;50.812;7.132;2024-02-23T12:21:24;11.20;55.70
4107;DHT22;21906;50.812;7.132;2024-02-23T12:23:50;11.20;55.40
4107;DHT22;21906;50.812;7.132;2024-02-23T12:26:17;11.10;55.60
4107;DHT22;21906;50.812;7.132;2024-02-23T12:28:44;11.00;54.80
4107;DHT22;21906;50.812;7.132;2024-02-23T12:31:11;11.10;56.30
4107;DHT22;21906;50.812;7.132;2024-02-23T12:33:38;11.10;54.90
4107;DHT22;21906;50.812;7.132;2024-02-23T12:36:08;11.00;55.20
4107;DHT22;21906;50.812;7.132;2024-02-23T12:38:34;11.10;54.90
4107;DHT22;21906;50.812;7.132;2024-02-23T12:41:01;11.10;55.40
4107;DHT22;21906;50.812;7.132;2024-02-23T12:43:28;11.10;56.70
4107;DHT22;21906;50.812;7.132;2024-02-23T12:45:55;11.10;57.30
4107;DHT22;21906;50.812;7.132;2024-02-23T12:48:22;11.00;54.60
4107;DHT22;21906;50.812;7.132;2024-02-23T12:50:48;11.00;55.20
4107;DHT22;21906;50.812;7.132;2024-02-23T12:53:35;10.90;56.00
4107;DHT22;21906;50.812;7.132;2024-02-23T12:58:48;10.90;56.00
4107;DHT22;21906;50.812;7.132;2024-02-23T13:01:15;10.80;56.30
4107;DHT22;21906;50.812;7.132;2024-02-23T13:03:41;10.70;56.20
4107;DHT22;21906;50.812;7.132;2024-02-23T13:06:07;10.70;56.70
4107;DHT22;21906;50.812;7.132;2024-02-23T13:08:33;10.80;57.10
4107;DHT22;21906;50.812;7.132;2024-02-23T13:11:00;10.80;56.00
4107;DHT22;21906;50.812;7.132;2024-02-23T13:13:26;10.90;55.90
4107;DHT22;21906;50.812;7.132;2024-02-23T13:15:53;11.00;56.10
4107;DHT22;21906;50.812;7.132;2024-02-23T13:18:19;11.00;55.40
4107;DHT22;21906;50.812;7.132;2024-02-23T13:20:45;11.00;55.50
4107;DHT22;21906;50.812;7.132;2024-02-23T13:23:12;10.90;56.40
4107;DHT22;21906;50.812;7.132;2024-02-23T13:25:39;11.00;57.00
4107;DHT22;21906;50.812;7.132;2024-02-23T13:28:06;11.10;56.10
4107;DHT22;21906;50.812;7.132;2024-02-23T13:30:33;10.90;58.10
4107;DHT22;21906;50.812;7.132;2024-02-23T13:32:59;11.10;58.50
4107;DHT22;21906;50.812;7.132;2024-02-23T13:35:26;11.40;55.90
4107;DHT22;21906;50.812;7.132;2024-02-23T13:37:52;11.70;54.70
4107;DHT22;21906;50.812;7.132;2024-02-23T13:40:18;11.80;53.20
4107;DHT22;21906;50.812;7.132;2024-02-23T13:42:43;11.90;52.90
4107;DHT22;21906;50.812;7.132;2024-02-23T13:45:15;12.10;54.50
4107;DHT22;21906;50.812;7.132;2024-02-23T13:47:42;12.00;53.80
4107;DHT22;21906;50.812;7.132;2024-02-23T13:50:10;12.00;53.70
4107;DHT22;21906;50.812;7.132;2024-02-23T13:52:36;11.80;53.70
4107;DHT22;21906;50.812;7.132;2024-02-23T13:55:02;11.80;54.20
4107;DHT22;21906;50.812;7.132;2024-02-23T13:57:28;11.80;54.00
4107;DHT22;21906;50.812;7.132;2024-02-23T13:59:54;11.80;54.00
4107;DHT22;21906;50.812;7.132;2024-02-23T14:02:25;12.10;53.70
4107;DHT22;21906;50.812;7.132;2024-02-23T14:04:52;12.40;53.30
4107;DHT22;21906;50.812;7.132;2024-02-23T14:07:19;12.90;52.10
4107;DHT22;21906;50.812;7.132;2024-02-23T14:09:45;13.10;50.60
4107;DHT22;21906;50.812;7.132;2024-02-23T14:12:11;13.40;50.30
4107;DHT22;21906;50.812;7.132;2024-02-23T14:14:37;13.40;49.00
4107;DHT22;21906;50.812;7.132;2024-02-23T14:17:03;13.60;47.80
4107;DHT22;21906;50.812;7.132;2024-02-23T14:19:29;13.80;48.00
4107;DHT22;21906;50.812;7.132;2024-02-23T14:21:55;13.70;47.10
4107;DHT22;21906;50.812;7.132;2024-02-23T14:24:21;13.30;48.40
4107;DHT22;21906;50.812;7.132;2024-02-23T14:26:47;13.20;48.90
4107;DHT22;21906;50.812;7.132;2024-02-23T14:29:13;13.30;48.20
4107;DHT22;21906;50.812;7.132;2024-02-23T14:31:39;13.40;49.20
4107;DHT22;21906;50.812;7.132;2024-02-23T14:34:04;13.80;48.40
4107;DHT22;21906;50.812;7.132;2024-02-23T14:36:31;14.20;47.90
4107;DHT22;21906;50.812;7.132;2024-02-23T14:39:00;14.60;47.40
4107;DHT22;21906;50.812;7.132;2024-02-23T14:41:25;14.80;47.00
4107;DHT22;21906;50.812;7.132;2024-02-23T14:43:51;15.00;46.90
4107;DHT22;21906;50.812;7.132;2024-02-23T14:46:17;15.00;45.10
4107;DHT22;21906;50.812;7.132;2024-02-23T14:48:43;14.90;46.20
4107;DHT22;21906;50.812;7.132;2024-02-23T14:51:09;14.90;46.10
4107;DHT22;21906;50.812;7.132;2024-02-23T14:53:35;14.90;46.10
4107;DHT22;21906;50.812;7.132;2024-02-23T14:56:01;14.70;46.00
4107;DHT22;21906;50.812;7.132;2024-02-23T14:58:26;14.50;47.00
4107;DHT22;21906;50.812;7.132;2024-02-23T15:00:52;14.40;47.20
4107;DHT22;21906;50.812;7.132;2024-02-23T15:03:18;14.20;47.60
4107;DHT22;21906;50.812;7.132;2024-02-23T15:05:44;14.30;48.00
4107;DHT22;21906;50.812;7.132;2024-02-23T15:08:10;14.60;46.90
4107;DHT22;21906;50.812;7.132;2024-02-23T15:10:36;14.60;45.10
4107;DHT22;21906;50.812;7.132;2024-02-23T15:13:02;14.50;45.00
4107;DHT22;21906;50.812;7.132;2024-02-23T15:15:28;14.20;46.10
4107;DHT22;21906;50.812;7.132;2024-02-23T15:17:54;14.10;46.90
4107;DHT22;21906;50.812;7.132;2024-02-23T15:20:23;13.60;47.80
4107;DHT22;21906;50.812;7.132;2024-02-23T15:22:49;13.50;48.20
4107;DHT22;21906;50.812;7.132;2024-02-23T15:25:17;13.50;47.60
4107;DHT22;21906;50.812;7.132;2024-02-23T15:27:43;13.10;49.40
4107;DHT22;21906;50.812;7.132;2024-02-23T15:30:09;13.10;51.10
4107;DHT22;21906;50.812;7.132;2024-02-23T15:32:36;13.10;52.10
4107;DHT22;21906;50.812;7.132;2024-02-23T15:35:02;13.50;52.10
4107;DHT22;21906;50.812;7.132;2024-02-23T15:37:29;13.90;51.50
4107;DHT22;21906;50.812;7.132;2024-02-23T15:39:55;14.20;50.90
4107;DHT22;21906;50.812;7.132;2024-02-23T15:42:21;14.70;50.10
4107;DHT22;21906;50.812;7.132;2024-02-23T15:44:47;15.00;49.50
4107;DHT22;21906;50.812;7.132;2024-02-23T15:47:13;15.00;48.90
4107;DHT22;21906;50.812;7.132;2024-02-23T15:49:39;14.80;49.20
4107;DHT22;21906;50.812;7.132;2024-02-23T15:52:06;14.70;48.90
4107;DHT22;21906;50.812;7.132;2024-02-23T15:54:32;14.50;48.80